createdAt,value
2019-02-25T00:00:32.364Z,35.45
2019-02-25T00:03:00.800Z,36.05
2019-02-25T00:05:29.372Z,35.92
2019-02-25T00:07:57.835Z,34.33
2019-02-25T00:10:31.711Z,34.98
2019-02-25T00:13:00.250Z,34.55
2019-02-25T00:15:29.100Z,37.08
2019-02-25T00:17:57.544Z,36.15
2019-02-25T00:20:26.104Z,36.90
2019-02-25T00:22:54.573Z,38.02
2019-02-25T00:25:23.028Z,37.23
2019-02-25T00:27:51.469Z,36.30
2019-02-25T00:30:19.940Z,36.98
2019-02-25T00:32:48.450Z,35.55
2019-02-25T00:35:16.895Z,36.53
2019-02-25T00:37:59.774Z,35.78
2019-02-25T00:40:28.281Z,34.70
2019-02-25T00:42:56.744Z,36.28
2019-02-25T00:45:25.224Z,36.30
2019-02-25T00:47:53.673Z,37.25
2019-02-25T00:50:23.151Z,33.88
2019-02-25T00:52:51.620Z,35.15
2019-02-25T00:55:20.220Z,35.45
2019-02-25T00:57:48.663Z,34.92
2019-02-25T01:00:21.925Z,34.75
2019-02-25T01:02:50.504Z,34.67
2019-02-25T01:05:19.169Z,34.95
2019-02-25T01:07:47.633Z,36.23
2019-02-25T01:10:17.313Z,35.98
2019-02-25T01:12:48.805Z,34.90
2019-02-25T01:15:38.137Z,36.75
2019-02-25T01:18:06.583Z,35.13
2019-02-25T01:20:35.039Z,35.28
2019-02-25T01:23:03.524Z,35.33
2019-02-25T01:25:31.965Z,35.43
2019-02-25T01:28:00.407Z,37.03
2019-02-25T01:30:28.883Z,37.50
2019-02-25T01:32:57.327Z,36.08
2019-02-25T01:35:25.845Z,35.48
2019-02-25T01:37:54.319Z,37.10
2019-02-25T01:40:22.757Z,36.60
2019-02-25T01:42:51.199Z,35.60
2019-02-25T01:45:20.620Z,37.10
2019-02-25T01:47:49.067Z,36.23
2019-02-25T01:50:17.577Z,36.15
2019-02-25T01:52:46.123Z,36.65
2019-02-25T01:55:14.828Z,38.48
2019-02-25T01:57:43.708Z,35.85
2019-02-25T02:00:19.410Z,37.50
2019-02-25T02:02:47.850Z,36.08
2019-02-25T02:05:16.370Z,36.85
2019-02-25T02:10:48.889Z,37.13
2019-02-25T02:13:17.333Z,36.77
2019-02-25T02:15:45.783Z,35.70
2019-02-25T02:18:14.259Z,36.75
2019-02-25T02:20:42.708Z,36.75
2019-02-25T02:23:11.150Z,37.58
2019-02-25T02:25:39.615Z,38.35
2019-02-25T02:28:08.091Z,36.53
2019-02-25T02:30:36.538Z,37.20
2019-02-25T02:33:05.016Z,36.63
2019-02-25T02:35:33.470Z,37.40
2019-02-25T02:38:01.984Z,36.05
2019-02-25T02:40:30.472Z,36.17
2019-02-25T02:43:02.239Z,36.17
2019-02-25T02:45:33.764Z,36.15
2019-02-25T02:48:26.009Z,34.85
2019-02-25T02:50:54.453Z,36.33
2019-02-25T02:53:22.906Z,36.28
2019-02-25T02:55:51.385Z,35.70
2019-02-25T02:58:19.817Z,35.05
2019-02-25T03:00:48.273Z,35.35
2019-02-25T03:03:16.740Z,33.13
2019-02-25T03:05:45.192Z,31.70
2019-02-25T03:08:13.629Z,34.38
2019-02-25T03:10:42.107Z,34.03
2019-02-25T03:13:10.554Z,33.40
2019-02-25T03:15:38.992Z,34.30
2019-02-25T03:18:07.472Z,33.70
2019-02-25T03:20:35.973Z,33.83
2019-02-25T03:23:05.153Z,30.60
2019-02-25T03:25:33.624Z,33.02
2019-02-25T03:28:02.181Z,31.77
2019-02-25T03:30:30.624Z,32.85
2019-02-25T03:32:59.171Z,31.95
2019-02-25T03:35:27.692Z,32.85
2019-02-25T03:37:56.139Z,33.08
2019-02-25T03:40:24.782Z,33.33
2019-02-25T03:42:53.228Z,34.27
2019-02-25T03:45:21.737Z,31.48
2019-02-25T03:47:50.214Z,33.38
2019-02-25T03:50:18.732Z,33.02
2019-02-25T03:52:47.247Z,33.13
2019-02-25T03:55:20.637Z,33.95
2019-02-25T03:57:49.419Z,36.42
2019-02-25T04:00:24.967Z,40.73
2019-02-25T04:02:53.553Z,42.25
2019-02-25T04:05:22.078Z,42.08
2019-02-25T04:07:50.687Z,41.08
2019-02-25T04:10:19.214Z,38.13
2019-02-25T04:12:47.665Z,36.93
2019-02-25T04:15:23.117Z,37.03
2019-02-25T04:18:12.278Z,35.35
2019-02-25T04:20:40.811Z,35.25
2019-02-25T04:23:09.253Z,35.63
2019-02-25T04:25:37.705Z,35.30
2019-02-25T04:28:06.170Z,35.35
2019-02-25T04:30:34.679Z,34.38
2019-02-25T04:33:03.136Z,35.52
2019-02-25T04:35:31.600Z,34.85
2019-02-25T04:38:00.040Z,35.45
2019-02-25T04:40:28.499Z,34.33
2019-02-25T04:42:56.977Z,33.20
2019-02-25T04:45:25.430Z,34.55
2019-02-25T04:47:53.939Z,34.60
2019-02-25T04:50:22.420Z,34.80
2019-02-25T04:52:50.924Z,34.55
2019-02-25T04:55:19.435Z,34.55
2019-02-25T04:57:48.027Z,34.50
2019-02-25T05:00:21.275Z,34.50
2019-02-25T05:02:49.839Z,36.23
2019-02-25T05:05:18.373Z,34.63
2019-02-25T05:07:46.847Z,34.80
2019-02-25T05:10:16.451Z,33.05
2019-02-25T05:12:46.699Z,35.33
2019-02-25T05:15:16.894Z,33.78
2019-02-25T05:17:45.339Z,35.27
2019-02-25T05:20:13.896Z,35.43
2019-02-25T05:22:42.332Z,36.42
2019-02-25T05:25:12.111Z,36.05
2019-02-25T05:27:40.667Z,35.70
2019-02-25T05:30:30.036Z,34.92
2019-02-25T05:32:58.586Z,37.40
2019-02-25T05:35:27.076Z,35.25
2019-02-25T05:37:55.600Z,38.53
2019-02-25T05:40:24.072Z,36.58
2019-02-25T05:43:11.856Z,35.92
2019-02-25T05:45:40.337Z,35.00
2019-02-25T05:48:08.777Z,36.33
2019-02-25T05:50:37.223Z,35.92
2019-02-25T05:53:05.697Z,34.90
2019-02-25T05:55:34.135Z,38.28
2019-02-25T05:58:02.581Z,36.38
2019-02-25T06:00:35.071Z,35.17
2019-02-25T06:03:03.648Z,36.20
2019-02-25T06:05:32.101Z,36.38
2019-02-25T06:08:00.644Z,36.00
2019-02-25T06:10:29.095Z,38.33
2019-02-25T06:12:57.541Z,35.23
2019-02-25T06:15:26.016Z,37.63
2019-02-25T06:17:54.465Z,35.73
2019-02-25T06:20:23.008Z,38.63
2019-02-25T06:22:51.493Z,37.48
2019-02-25T06:25:20.051Z,40.23
2019-02-25T06:27:48.561Z,39.70
2019-02-25T06:30:43.910Z,41.25
2019-02-25T06:33:12.356Z,39.30
2019-02-25T06:35:40.818Z,39.42
2019-02-25T06:38:09.300Z,44.77
2019-02-25T06:40:37.754Z,42.15
2019-02-25T06:43:06.192Z,44.20
2019-02-25T06:45:36.604Z,42.35
2019-02-25T06:48:05.244Z,43.75
2019-02-25T06:50:33.687Z,41.30
2019-02-25T06:53:02.178Z,43.05
2019-02-25T06:55:30.635Z,41.08
2019-02-25T06:57:59.087Z,39.83
2019-02-25T07:00:27.647Z,41.63
2019-02-25T07:02:56.083Z,43.60
2019-02-25T07:05:26.164Z,41.33
2019-02-25T07:07:56.270Z,42.23
2019-02-25T07:10:38.587Z,40.63
2019-02-25T07:13:17.939Z,41.58
2019-02-25T07:16:06.315Z,41.73
2019-02-25T07:18:36.432Z,42.35
2019-02-25T07:24:14.314Z,43.80
2019-02-25T07:27:00.756Z,43.68
2019-02-25T07:29:48.975Z,43.75
2019-02-25T07:32:25.073Z,43.38
2019-02-25T07:35:11.225Z,44.45
2019-02-25T07:37:57.889Z,44.00
2019-02-25T07:40:28.048Z,46.13
2019-02-25T07:43:07.186Z,44.43
2019-02-25T07:45:40.266Z,40.35
2019-02-25T07:48:10.354Z,41.68
2019-02-25T07:50:46.985Z,45.07
2019-02-25T07:53:40.954Z,45.20
2019-02-25T07:56:20.553Z,44.15
2019-02-25T07:59:02.301Z,43.63
2019-02-25T08:01:41.234Z,41.77
2019-02-25T08:04:11.363Z,39.98
2019-02-25T08:06:44.379Z,40.43
2019-02-25T08:09:14.483Z,40.88
2019-02-25T08:14:35.373Z,38.95
2019-02-25T08:20:07.359Z,38.55
2019-02-25T08:22:43.196Z,39.63
2019-02-25T08:25:13.377Z,38.08
2019-02-25T08:27:59.841Z,39.70
2019-02-25T08:30:48.039Z,38.45
2019-02-25T08:36:34.401Z,39.35
2019-02-25T08:39:10.469Z,39.03
2019-02-25T08:41:49.221Z,40.60
2019-02-25T08:44:19.303Z,38.63
2019-02-25T08:49:37.079Z,36.80
2019-02-25T08:52:05.828Z,36.97
2019-02-25T08:54:34.342Z,38.78
2019-02-25T08:57:03.151Z,38.85
2019-02-25T08:59:31.691Z,36.93
2019-02-25T09:02:00.149Z,36.08
2019-02-25T09:04:28.663Z,35.20
2019-02-25T09:06:57.141Z,36.10
2019-02-25T09:09:25.604Z,34.23
2019-02-25T09:11:54.123Z,34.67
2019-02-25T09:14:22.604Z,35.00
2019-02-25T09:16:52.109Z,32.03
2019-02-25T09:19:20.552Z,32.48
2019-02-25T09:21:49.029Z,32.13
2019-02-25T09:24:17.479Z,31.02
2019-02-25T09:26:45.968Z,30.40
2019-02-25T09:29:14.440Z,29.90
2019-02-25T09:31:42.952Z,30.43
2019-02-25T09:34:12.420Z,28.80
2019-02-25T09:36:40.885Z,27.70
2019-02-25T09:39:30.190Z,28.35
2019-02-25T09:41:58.665Z,28.17
2019-02-25T09:44:27.108Z,27.40
2019-02-25T09:46:55.573Z,26.62
2019-02-25T09:49:24.051Z,26.37
2019-02-25T09:51:52.507Z,26.42
2019-02-25T09:54:20.963Z,27.25
2019-02-25T09:56:49.461Z,27.37
2019-02-25T09:59:18.024Z,26.33
2019-02-25T10:01:46.473Z,26.15
2019-02-25T10:04:15.039Z,26.02
2019-02-25T10:06:43.491Z,26.02
2019-02-25T10:09:11.931Z,25.43
2019-02-25T10:11:40.421Z,24.90
2019-02-25T10:14:08.868Z,23.95
2019-02-25T10:16:37.320Z,24.23
2019-02-25T10:19:05.800Z,23.60
2019-02-25T10:21:34.254Z,23.87
2019-02-25T10:24:02.704Z,24.00
2019-02-25T10:26:31.186Z,24.27
2019-02-25T10:28:59.694Z,23.07
2019-02-25T10:31:28.143Z,23.30
2019-02-25T10:33:56.697Z,24.25
2019-02-25T10:36:25.147Z,24.05
2019-02-25T10:38:53.660Z,24.57
2019-02-25T10:41:23.337Z,24.30
2019-02-25T10:43:52.404Z,24.63
2019-02-25T10:46:20.859Z,24.52
2019-02-25T10:48:53.843Z,23.92
2019-02-25T10:51:19.512Z,24.35
2019-02-25T10:53:49.934Z,23.98
2019-02-25T10:56:44.885Z,23.52
2019-02-25T10:59:13.410Z,23.15
2019-02-25T11:01:43.306Z,24.20
2019-02-25T11:04:12.212Z,23.57
2019-02-25T11:06:40.664Z,22.40
2019-02-25T11:09:18.126Z,23.67
2019-02-25T11:11:48.503Z,23.12
2019-02-25T11:14:17.051Z,25.45
2019-02-25T11:16:46.101Z,24.30
2019-02-25T11:19:15.708Z,25.05
2019-02-25T11:21:44.344Z,25.15
2019-02-25T11:24:14.445Z,23.90
2019-02-25T11:26:43.552Z,23.50
2019-02-25T11:29:13.729Z,24.63
2019-02-25T11:31:45.231Z,24.50
2019-02-25T11:34:14.901Z,24.60
2019-02-25T11:36:43.393Z,24.52
2019-02-25T11:39:13.432Z,24.43
2019-02-25T11:41:41.965Z,24.65
2019-02-25T11:44:10.421Z,24.67
2019-02-25T11:46:38.981Z,24.23
2019-02-25T11:49:07.449Z,22.87
2019-02-25T11:51:35.944Z,22.10
2019-02-25T11:54:04.721Z,22.52
2019-02-25T11:56:33.171Z,22.60
2019-02-25T11:59:01.670Z,22.42
2019-02-25T12:01:33.145Z,22.37
2019-02-25T12:04:01.591Z,22.58
2019-02-25T12:06:30.049Z,22.87
2019-02-25T12:08:58.532Z,22.52
2019-02-25T12:11:26.983Z,20.92
2019-02-25T12:13:55.455Z,21.48
2019-02-25T12:16:24.101Z,22.55
2019-02-25T12:18:52.549Z,22.20
2019-02-25T12:21:21.008Z,22.05
2019-02-25T12:23:49.476Z,23.47
2019-02-25T12:26:18.012Z,21.48
2019-02-25T12:28:46.462Z,21.60
2019-02-25T12:31:15.005Z,21.85
2019-02-25T12:33:43.454Z,22.80
2019-02-25T12:36:13.672Z,21.23
2019-02-25T12:38:42.292Z,20.43
2019-02-25T12:41:10.818Z,19.25
2019-02-25T12:43:39.263Z,21.27
2019-02-25T12:46:07.755Z,21.23
2019-02-25T12:48:36.209Z,19.48
2019-02-25T12:51:04.726Z,19.12
2019-02-25T12:53:33.214Z,18.75
2019-02-25T12:56:01.724Z,18.98
2019-02-25T12:58:30.253Z,18.75
2019-02-25T13:00:58.721Z,17.92
2019-02-25T13:03:27.252Z,16.65
2019-02-25T13:05:55.691Z,16.32
2019-02-25T13:08:24.168Z,17.02
2019-02-25T13:10:52.619Z,16.73
2019-02-25T13:13:21.074Z,14.60
2019-02-25T13:15:49.612Z,15.40
2019-02-25T13:18:18.066Z,15.08
2019-02-25T13:20:46.516Z,15.63
2019-02-25T13:23:15.004Z,16.05
2019-02-25T13:25:43.447Z,16.07
2019-02-25T13:28:11.999Z,16.25
2019-02-25T13:30:40.660Z,16.75
2019-02-25T13:33:09.120Z,16.07
2019-02-25T13:35:37.644Z,15.40
2019-02-25T13:38:06.369Z,14.58
2019-02-25T13:40:35.023Z,13.50
2019-02-25T13:43:03.556Z,14.87
2019-02-25T13:45:32.128Z,15.38
2019-02-25T13:48:00.656Z,14.55
2019-02-25T13:50:29.180Z,13.35
2019-02-25T13:52:57.725Z,14.03
2019-02-25T13:55:26.248Z,13.48
2019-02-25T13:57:54.772Z,13.30
2019-02-25T14:00:25.074Z,13.22
2019-02-25T14:02:53.655Z,13.25
2019-02-25T14:05:22.612Z,12.55
2019-02-25T14:07:51.339Z,11.78
2019-02-25T14:10:20.400Z,11.78
2019-02-25T14:12:48.980Z,11.73
2019-02-25T14:15:20.164Z,11.18
2019-02-25T14:20:25.058Z,11.43
2019-02-25T14:22:53.734Z,11.88
2019-02-25T14:25:25.736Z,11.33
2019-02-25T14:27:54.644Z,11.15
2019-02-25T14:30:24.705Z,10.48
2019-02-25T14:32:53.738Z,9.75
2019-02-25T14:35:28.691Z,7.25
2019-02-25T14:38:04.185Z,6.53
2019-02-25T14:40:32.003Z,5.90
2019-02-25T14:43:00.620Z,5.50
2019-02-25T14:45:33.522Z,6.78
2019-02-25T14:48:03.130Z,7.65
2019-02-25T14:50:31.080Z,7.85
2019-02-25T14:53:00.591Z,10.30
2019-02-25T14:55:29.987Z,11.18
2019-02-25T14:58:02.173Z,11.88
2019-02-25T15:00:31.863Z,15.55
2019-02-25T15:03:01.493Z,16.02
2019-02-25T15:05:30.044Z,17.95
2019-02-25T15:07:58.850Z,19.73
2019-02-25T15:10:29.678Z,18.92
2019-02-25T15:12:59.086Z,19.70
2019-02-25T15:15:28.063Z,17.90
2019-02-25T15:17:57.039Z,23.50
2019-02-25T15:20:26.826Z,20.43
2019-02-25T15:22:55.944Z,19.57
2019-02-25T15:25:24.539Z,20.20
2019-02-25T15:27:53.222Z,20.75
2019-02-25T15:30:30.698Z,20.65
2019-02-25T15:33:00.526Z,20.25
2019-02-25T15:35:32.445Z,20.35
2019-02-25T15:38:00.656Z,19.57
2019-02-25T15:40:29.519Z,20.32
2019-02-25T15:43:15.045Z,20.25
2019-02-25T15:45:44.115Z,19.98
2019-02-25T15:48:20.583Z,21.73
2019-02-25T15:50:55.500Z,21.57
2019-02-25T15:53:24.353Z,22.22
2019-02-25T15:55:53.023Z,22.70
2019-02-25T15:58:21.807Z,22.82
2019-02-25T16:00:50.327Z,23.85
2019-02-25T16:03:20.489Z,23.67
2019-02-25T16:05:52.263Z,24.70
2019-02-25T16:08:21.276Z,23.47
2019-02-25T16:10:51.279Z,23.25
2019-02-25T16:13:20.072Z,24.27
2019-02-25T16:15:48.671Z,23.12
2019-02-25T16:18:17.460Z,22.58
2019-02-25T16:21:05.396Z,23.18
2019-02-25T16:23:34.687Z,22.75
2019-02-25T16:26:04.451Z,23.22
2019-02-25T16:28:34.027Z,22.60
2019-02-25T16:31:03.930Z,22.50
2019-02-25T16:33:35.238Z,23.35
2019-02-25T16:36:05.610Z,23.92
2019-02-25T16:38:34.654Z,24.80
2019-02-25T16:41:06.221Z,24.80
2019-02-25T16:43:35.244Z,23.65
2019-02-25T16:46:06.104Z,25.12
2019-02-25T16:48:34.062Z,24.75
2019-02-25T16:51:03.378Z,26.27
2019-02-25T16:53:36.982Z,25.77
2019-02-25T16:56:05.099Z,27.52
2019-02-25T16:58:34.066Z,27.27
2019-02-25T17:01:05.584Z,27.80
2019-02-25T17:03:34.891Z,28.05
2019-02-25T17:06:06.276Z,28.02
2019-02-25T17:08:34.839Z,27.05
2019-02-25T17:11:03.455Z,26.48
2019-02-25T17:13:33.051Z,25.85
2019-02-25T17:16:03.266Z,25.48
2019-02-25T17:18:32.029Z,26.42
2019-02-25T17:21:00.590Z,26.20
2019-02-25T17:23:30.209Z,25.97
2019-02-25T17:25:59.398Z,26.80
2019-02-25T17:28:29.595Z,27.85
2019-02-25T17:30:58.129Z,27.07
2019-02-25T17:33:28.210Z,27.77
2019-02-25T17:35:56.885Z,27.58
2019-02-25T17:38:26.519Z,27.45
2019-02-25T17:40:55.503Z,27.50
2019-02-25T17:43:24.235Z,27.98
2019-02-25T17:45:55.984Z,27.77
2019-02-25T17:48:23.261Z,28.77
2019-02-25T17:50:53.479Z,26.82
2019-02-25T17:53:24.030Z,28.42
2019-02-25T17:55:53.362Z,27.32
2019-02-25T17:58:23.997Z,26.73
2019-02-25T18:00:54.154Z,27.30
2019-02-25T18:03:23.994Z,27.13
2019-02-25T18:05:53.524Z,27.95
2019-02-25T18:08:22.056Z,28.20
2019-02-25T18:10:51.985Z,27.15
2019-02-25T18:13:21.991Z,28.27
2019-02-25T18:15:52.044Z,27.67
2019-02-25T18:18:22.233Z,28.23
2019-02-25T18:20:53.590Z,26.97
2019-02-25T18:23:22.227Z,26.35
2019-02-25T18:25:53.224Z,27.95
2019-02-25T18:28:22.563Z,27.90
2019-02-25T18:30:51.438Z,27.45
2019-02-25T18:33:22.541Z,27.48
2019-02-25T18:35:50.289Z,28.60
2019-02-25T18:38:18.933Z,29.20
2019-02-25T18:40:47.587Z,27.48
2019-02-25T18:43:16.421Z,28.27
2019-02-25T18:45:44.959Z,28.25
2019-02-25T18:48:13.550Z,29.50
2019-02-25T18:50:44.983Z,29.20
2019-02-25T18:53:13.048Z,29.80
2019-02-25T18:55:41.990Z,28.65
2019-02-25T18:58:11.971Z,29.30
2019-02-25T19:03:50.590Z,29.20
2019-02-25T19:06:21.476Z,29.70
2019-02-25T19:08:51.619Z,31.17
2019-02-25T19:11:21.362Z,29.97
2019-02-25T19:13:52.021Z,29.82
2019-02-25T19:16:21.943Z,31.80
2019-02-25T19:18:51.516Z,31.87
2019-02-25T19:21:19.972Z,31.52
2019-02-25T19:23:48.628Z,31.10
2019-02-25T19:26:19.571Z,33.98
2019-02-25T19:28:48.086Z,36.65
2019-02-25T19:31:17.971Z,36.83
2019-02-25T19:33:46.522Z,36.60
2019-02-25T19:36:15.383Z,38.13
2019-02-25T19:38:45.664Z,39.20
2019-02-25T19:41:15.445Z,39.67
2019-02-25T19:43:44.449Z,38.67
2019-02-25T19:46:13.159Z,39.25
2019-02-25T19:48:42.679Z,43.35
2019-02-25T19:51:11.993Z,39.70
2019-02-25T19:53:41.218Z,40.90
2019-02-25T19:56:10.811Z,40.40
2019-02-25T19:58:41.052Z,40.83
2019-02-25T20:01:11.008Z,40.38
2019-02-25T20:03:40.608Z,39.05
2019-02-25T20:06:13.845Z,39.10
2019-02-25T20:08:40.325Z,38.98
2019-02-25T20:11:09.641Z,37.95
2019-02-25T20:13:42.729Z,37.35
2019-02-25T20:16:13.300Z,38.80
2019-02-25T20:18:40.280Z,35.23
2019-02-25T20:21:09.268Z,37.08
2019-02-25T20:23:37.703Z,36.30
2019-02-25T20:26:06.244Z,37.93
2019-02-25T20:28:34.692Z,37.33
2019-02-25T20:31:03.128Z,35.52
2019-02-25T20:33:32.968Z,36.63
2019-02-25T20:36:03.146Z,36.98
2019-02-25T20:38:32.595Z,34.53
2019-02-25T20:41:02.591Z,35.23
2019-02-25T20:43:32.490Z,34.45
2019-02-25T20:46:03.478Z,35.05
2019-02-25T20:48:31.516Z,35.85
2019-02-25T20:51:01.853Z,34.88
2019-02-25T20:53:32.221Z,34.90
2019-02-25T20:56:00.601Z,36.57
2019-02-25T20:58:29.068Z,35.08
2019-02-25T21:00:57.511Z,34.70
2019-02-25T21:03:27.650Z,35.25
2019-02-25T21:05:56.199Z,34.40
2019-02-25T21:08:24.716Z,35.30
2019-02-25T21:10:53.351Z,33.10
2019-02-25T21:13:22.052Z,33.70
2019-02-25T21:15:52.103Z,34.87
2019-02-25T21:18:22.379Z,34.67
2019-02-25T21:20:51.516Z,34.90
2019-02-25T21:23:20.536Z,35.03
2019-02-25T21:25:49.017Z,34.67
2019-02-25T21:28:17.455Z,35.98
2019-02-25T21:30:46.847Z,34.55
2019-02-25T21:33:17.980Z,35.53
2019-02-25T21:35:46.279Z,36.43
2019-02-25T21:38:14.908Z,36.68
2019-02-25T21:40:43.976Z,35.55
2019-02-25T21:43:16.261Z,36.50
2019-02-25T21:45:46.064Z,36.93
2019-02-25T21:48:14.280Z,36.10
2019-02-25T21:50:42.781Z,36.28
2019-02-25T21:53:12.215Z,35.38
2019-02-25T21:55:41.468Z,36.57
2019-02-25T21:58:09.934Z,37.40
2019-02-25T22:00:40.727Z,41.53
2019-02-25T22:03:10.467Z,45.87
2019-02-25T22:05:38.837Z,44.83
2019-02-25T22:08:07.280Z,44.23
2019-02-25T22:10:37.586Z,43.42
2019-02-25T22:13:08.769Z,42.45
2019-02-25T22:15:38.246Z,40.95
2019-02-25T22:18:08.634Z,38.70
2019-02-25T22:20:39.690Z,37.50
2019-02-25T22:23:08.030Z,37.07
2019-02-25T22:25:36.704Z,35.58
2019-02-25T22:28:05.880Z,35.45
2019-02-25T22:30:35.317Z,33.77
2019-02-25T22:33:04.907Z,35.35
2019-02-25T22:35:37.399Z,36.08
2019-02-25T22:38:04.195Z,35.97
2019-02-25T22:40:34.465Z,35.05
2019-02-25T22:43:02.881Z,35.92
2019-02-25T22:45:33.042Z,34.13
2019-02-25T22:48:01.550Z,33.60
2019-02-25T22:50:31.130Z,32.88
2019-02-25T22:53:01.612Z,33.33
2019-02-25T22:55:30.408Z,33.63
2019-02-25T22:57:58.887Z,32.85
2019-02-25T23:00:46.625Z,33.60
2019-02-25T23:03:15.916Z,33.02
2019-02-25T23:05:47.738Z,32.60
2019-02-25T23:08:17.935Z,32.70
2019-02-25T23:10:46.951Z,33.93
2019-02-25T23:13:54.794Z,34.18
2019-02-25T23:16:56.671Z,33.38
2019-02-25T23:19:25.136Z,32.90
2019-02-25T23:21:53.585Z,30.37
2019-02-25T23:24:25.924Z,34.27
2019-02-25T23:26:53.062Z,33.63
2019-02-25T23:29:26.181Z,34.18
2019-02-25T23:31:52.703Z,34.93
2019-02-25T23:34:22.787Z,34.30
2019-02-25T23:37:13.015Z,34.98
2019-02-25T23:39:42.699Z,32.95
2019-02-25T23:42:11.534Z,34.55
2019-02-25T23:44:41.301Z,36.27
2019-02-25T23:47:10.909Z,34.78
2019-02-25T23:49:41.528Z,35.43
2019-02-25T23:52:09.669Z,35.53
2019-02-25T23:54:38.135Z,34.43
2019-02-25T23:57:06.588Z,34.25
2019-02-25T23:59:35.034Z,33.92
